createdAt,value
2022-10-05T00:01:31.239Z,7.55
2022-10-05T00:04:15.234Z,6.93
2022-10-05T00:06:45.819Z,6.82
2022-10-05T00:09:18.130Z,6.88
2022-10-05T00:11:47.434Z,7.00
2022-10-05T00:14:19.634Z,7.50
2022-10-05T00:16:50.010Z,6.90
2022-10-05T00:19:27.327Z,5.85
2022-10-05T00:22:00.143Z,6.95
2022-10-05T00:24:28.272Z,7.40
2022-10-05T00:26:58.188Z,7.10
2022-10-05T00:29:26.619Z,7.00
2022-10-05T00:31:56.185Z,7.18
2022-10-05T00:34:26.791Z,7.15
2022-10-05T00:36:57.033Z,7.10
2022-10-05T00:39:25.324Z,6.80
2022-10-05T00:42:22.480Z,7.07
2022-10-05T00:44:58.052Z,7.10
2022-10-05T00:47:44.578Z,6.47
2022-10-05T00:51:02.233Z,6.53
2022-10-05T00:53:42.525Z,6.75
2022-10-05T00:56:39.009Z,6.88
2022-10-05T00:59:26.734Z,7.22
2022-10-05T01:02:03.951Z,6.50
2022-10-05T01:04:44.889Z,7.10
2022-10-05T01:07:25.493Z,6.63
2022-10-05T01:10:02.338Z,7.18
2022-10-05T01:12:46.831Z,7.55
2022-10-05T01:15:23.473Z,6.90
2022-10-05T01:18:01.076Z,7.43
2022-10-05T01:20:44.522Z,6.82
2022-10-05T01:24:02.260Z,6.78
2022-10-05T01:26:55.218Z,7.35
2022-10-05T01:29:30.876Z,6.95
2022-10-05T01:32:08.282Z,7.15
2022-10-05T01:34:44.188Z,7.03
2022-10-05T01:37:23.021Z,6.90
2022-10-05T01:40:04.518Z,6.82
2022-10-05T01:42:53.847Z,6.95
2022-10-05T01:45:36.174Z,7.10
2022-10-05T01:48:15.648Z,7.07
2022-10-05T01:50:58.006Z,6.85
2022-10-05T01:53:41.915Z,6.95
2022-10-05T01:56:23.683Z,6.95
2022-10-05T01:59:08.336Z,6.93
2022-10-05T02:01:51.000Z,7.20
2022-10-05T02:04:59.942Z,6.00
2022-10-05T02:07:24.345Z,7.50
2022-10-05T02:10:02.075Z,7.22
2022-10-05T02:12:37.454Z,7.22
2022-10-05T02:15:18.195Z,7.13
2022-10-05T02:17:54.047Z,7.93
2022-10-05T02:20:28.560Z,8.32
2022-10-05T02:23:03.201Z,7.28
2022-10-05T02:25:36.287Z,6.93
2022-10-05T02:28:13.421Z,6.68
2022-10-05T02:30:49.998Z,7.78
2022-10-05T02:33:29.768Z,7.25
2022-10-05T02:36:11.722Z,6.85
2022-10-05T02:39:00.277Z,7.47
2022-10-05T02:41:43.928Z,7.68
2022-10-05T02:44:27.912Z,7.82
2022-10-05T02:47:09.913Z,7.05
2022-10-05T02:49:48.731Z,7.13
2022-10-05T02:52:27.891Z,6.82
2022-10-05T02:55:10.323Z,7.68
2022-10-05T02:57:48.380Z,7.45
2022-10-05T03:00:22.276Z,7.45
2022-10-05T03:03:02.898Z,6.93
2022-10-05T03:05:40.086Z,7.18
2022-10-05T03:08:18.665Z,6.95
2022-10-05T03:10:58.248Z,7.53
2022-10-05T03:13:35.149Z,6.90
2022-10-05T03:16:42.343Z,7.18
2022-10-05T03:19:31.390Z,7.40
2022-10-05T03:22:14.219Z,6.75
2022-10-05T03:25:04.011Z,7.45
2022-10-05T03:27:45.740Z,7.20
2022-10-05T03:30:18.540Z,8.00
2022-10-05T03:33:04.054Z,7.80
2022-10-05T03:35:45.777Z,7.65
2022-10-05T03:38:26.724Z,6.78
2022-10-05T03:41:03.428Z,7.43
2022-10-05T03:43:54.467Z,8.10
2022-10-05T03:46:40.632Z,6.93
2022-10-05T03:49:21.197Z,7.22
2022-10-05T03:51:56.196Z,7.10
2022-10-05T03:54:33.763Z,7.63
2022-10-05T03:57:13.191Z,7.65
2022-10-05T03:59:50.085Z,7.07
2022-10-05T04:02:27.267Z,8.63
2022-10-05T04:05:04.128Z,7.40
2022-10-05T04:07:43.543Z,8.60
2022-10-05T04:10:22.129Z,7.32
2022-10-05T04:12:59.143Z,7.78
2022-10-05T04:15:34.694Z,8.07
2022-10-05T04:18:11.496Z,7.78
2022-10-05T04:20:45.798Z,7.50
2022-10-05T04:23:26.136Z,7.82
2022-10-05T04:26:04.995Z,7.82
2022-10-05T04:28:44.561Z,7.65
2022-10-05T04:31:22.830Z,8.50
2022-10-05T04:34:11.246Z,8.25
2022-10-05T04:36:51.241Z,8.00
2022-10-05T04:39:33.039Z,7.85
2022-10-05T04:42:14.086Z,8.85
2022-10-05T04:45:09.044Z,7.85
2022-10-05T04:48:25.881Z,8.25
2022-10-05T04:51:17.945Z,8.85
2022-10-05T04:53:55.256Z,8.20
2022-10-05T04:56:40.100Z,8.75
2022-10-05T04:59:49.854Z,8.43
2022-10-05T05:02:34.095Z,8.65
2022-10-05T05:05:26.945Z,9.55
2022-10-05T05:08:13.820Z,8.88
2022-10-05T05:11:15.811Z,9.13
2022-10-05T05:14:27.962Z,8.32
2022-10-05T05:17:17.057Z,9.15
2022-10-05T05:20:01.033Z,9.35
2022-10-05T05:22:41.810Z,8.70
2022-10-05T05:25:39.484Z,9.35
2022-10-05T05:28:25.123Z,9.60
2022-10-05T05:31:09.616Z,9.23
2022-10-05T05:33:51.763Z,10.18
2022-10-05T05:36:46.112Z,9.82
2022-10-05T05:39:27.061Z,8.65
2022-10-05T05:42:04.982Z,10.40
2022-10-05T05:44:44.534Z,10.02
2022-10-05T05:47:21.482Z,9.35
2022-10-05T05:50:22.747Z,9.68
2022-10-05T05:52:56.711Z,10.05
2022-10-05T05:55:32.107Z,10.50
2022-10-05T05:58:14.958Z,10.48
2022-10-05T06:00:51.119Z,10.00
2022-10-05T06:03:28.422Z,11.48
2022-10-05T06:06:03.577Z,10.35
2022-10-05T06:08:40.810Z,11.00
2022-10-05T06:11:28.422Z,10.25
2022-10-05T06:14:02.637Z,9.98
2022-10-05T06:16:37.998Z,10.73
2022-10-05T06:19:17.292Z,10.32
2022-10-05T06:21:56.170Z,10.07
2022-10-05T06:24:30.804Z,10.32
2022-10-05T06:27:27.729Z,9.45
2022-10-05T06:30:13.273Z,9.65
2022-10-05T06:33:11.530Z,9.40
2022-10-05T06:36:02.730Z,10.40
2022-10-05T06:38:57.215Z,9.20
2022-10-05T06:41:40.659Z,9.88
2022-10-05T06:44:16.758Z,10.40
2022-10-05T06:47:01.121Z,9.07
2022-10-05T06:50:07.890Z,9.75
2022-10-05T06:53:05.908Z,9.80
2022-10-05T06:55:49.024Z,9.75
2022-10-05T06:58:46.800Z,10.27
2022-10-05T07:01:32.068Z,9.73
2022-10-05T07:04:25.403Z,10.50
2022-10-05T07:07:01.063Z,10.43
2022-10-05T07:09:47.309Z,9.80
2022-10-05T07:12:47.892Z,9.98
2022-10-05T07:15:43.038Z,10.02
2022-10-05T07:19:00.180Z,10.43
2022-10-05T07:21:40.089Z,9.27
2022-10-05T07:24:29.221Z,10.60
2022-10-05T07:27:13.571Z,9.70
2022-10-05T07:29:57.743Z,10.45
2022-10-05T07:32:37.434Z,9.90
2022-10-05T07:35:32.717Z,9.48
2022-10-05T07:38:07.629Z,10.50
2022-10-05T07:40:44.450Z,10.30
2022-10-05T07:43:45.378Z,9.82
2022-10-05T07:46:27.678Z,9.48
2022-10-05T07:49:04.093Z,9.52
2022-10-05T07:51:40.893Z,9.77
2022-10-05T07:54:27.782Z,9.40
2022-10-05T07:57:06.858Z,9.70
2022-10-05T07:59:54.411Z,8.57
2022-10-05T08:02:30.049Z,10.80
2022-10-05T08:05:04.638Z,10.05
2022-10-05T08:07:36.598Z,9.18
2022-10-05T08:10:25.245Z,9.48
2022-10-05T08:13:08.219Z,8.07
2022-10-05T08:15:42.907Z,9.75
2022-10-05T08:18:25.522Z,9.10
2022-10-05T08:20:57.476Z,9.15
2022-10-05T08:23:35.900Z,9.23
2022-10-05T08:26:17.846Z,10.45
2022-10-05T08:29:00.736Z,9.98
2022-10-05T08:31:35.431Z,9.27
2022-10-05T08:34:22.067Z,9.10
2022-10-05T08:37:03.330Z,9.40
2022-10-05T08:39:40.030Z,9.52
2022-10-05T08:42:44.577Z,8.85
2022-10-05T08:45:56.198Z,8.93
2022-10-05T08:49:10.657Z,10.57
2022-10-05T08:52:24.529Z,9.15
2022-10-05T08:55:44.579Z,9.40
2022-10-05T08:58:54.809Z,9.35
2022-10-05T09:01:39.088Z,9.63
2022-10-05T09:04:49.792Z,9.07
2022-10-05T09:07:57.101Z,9.00
2022-10-05T09:11:04.976Z,9.02
2022-10-05T09:14:07.324Z,9.30
2022-10-05T09:17:10.422Z,8.68
2022-10-05T09:20:16.175Z,8.50
2022-10-05T09:23:13.743Z,8.43
2022-10-05T09:26:00.083Z,8.55
2022-10-05T09:28:46.087Z,8.57
2022-10-05T09:32:02.289Z,8.75
2022-10-05T09:35:03.321Z,8.68
2022-10-05T09:38:21.043Z,8.63
2022-10-05T09:41:37.636Z,9.65
2022-10-05T09:44:43.860Z,9.68
2022-10-05T09:47:59.762Z,8.93
2022-10-05T09:51:24.101Z,10.48
2022-10-05T09:54:47.194Z,10.30
2022-10-05T09:57:59.214Z,9.70
2022-10-05T10:00:50.129Z,8.90
2022-10-05T10:04:09.958Z,9.30
2022-10-05T10:07:28.250Z,8.70
2022-10-05T10:10:33.158Z,9.50
2022-10-05T10:13:31.099Z,8.80
2022-10-05T10:16:34.188Z,8.60
2022-10-05T10:19:24.604Z,8.20
2022-10-05T10:22:39.686Z,8.65
2022-10-05T10:25:45.602Z,8.15
2022-10-05T10:29:07.636Z,7.82
2022-10-05T10:32:10.936Z,7.65
2022-10-05T10:35:18.662Z,8.27
2022-10-05T10:38:40.122Z,7.63
2022-10-05T10:41:51.974Z,7.75
2022-10-05T10:45:00.711Z,7.85
2022-10-05T10:47:54.490Z,8.20
2022-10-05T10:51:00.517Z,8.35
2022-10-05T10:54:12.578Z,7.78
2022-10-05T10:57:06.119Z,8.10
2022-10-05T11:00:23.164Z,8.65
2022-10-05T11:03:51.934Z,8.50
2022-10-05T11:06:52.694Z,8.40
2022-10-05T11:10:01.712Z,8.38
2022-10-05T11:13:17.937Z,8.43
2022-10-05T11:16:42.611Z,8.52
2022-10-05T11:20:03.047Z,8.15
2022-10-05T11:22:56.988Z,7.32
2022-10-05T11:25:45.706Z,8.82
2022-10-05T11:28:51.897Z,7.78
2022-10-05T11:32:13.619Z,7.78
2022-10-05T11:35:25.841Z,7.90
2022-10-05T11:38:22.968Z,7.63
2022-10-05T11:41:43.115Z,7.30
2022-10-05T11:44:56.030Z,7.55
2022-10-05T11:47:29.190Z,6.80
2022-10-05T11:50:12.328Z,7.25
2022-10-05T11:52:47.996Z,7.32
2022-10-05T11:55:27.028Z,7.10
2022-10-05T11:57:58.837Z,6.57
2022-10-05T12:00:37.183Z,7.10
2022-10-05T12:03:30.619Z,6.55
2022-10-05T12:06:33.947Z,7.47
2022-10-05T12:09:27.780Z,6.22
2022-10-05T12:12:11.357Z,6.20
2022-10-05T12:14:52.578Z,5.40
2022-10-05T12:17:35.204Z,5.22
2022-10-05T12:20:11.923Z,5.22
2022-10-05T12:22:47.680Z,4.90
2022-10-05T12:25:33.998Z,4.72
2022-10-05T12:28:10.435Z,4.82
2022-10-05T12:31:17.155Z,4.55
2022-10-05T12:33:56.988Z,4.40
2022-10-05T12:36:59.686Z,4.82
2022-10-05T12:39:38.385Z,4.53
2022-10-05T12:42:20.922Z,4.53
2022-10-05T12:45:17.398Z,4.88
2022-10-05T12:48:09.071Z,4.57
2022-10-05T12:50:42.999Z,4.60
2022-10-05T12:53:29.259Z,5.57
2022-10-05T12:56:09.328Z,4.57
2022-10-05T12:58:52.684Z,4.43
2022-10-05T13:01:37.856Z,4.60
2022-10-05T13:04:24.049Z,4.63
2022-10-05T13:07:19.469Z,4.95
2022-10-05T13:10:08.914Z,4.72
2022-10-05T13:12:51.583Z,5.20
2022-10-05T13:15:28.250Z,4.75
2022-10-05T13:18:12.519Z,3.90
2022-10-05T13:20:46.903Z,4.70
2022-10-05T13:23:26.186Z,4.70
2022-10-05T13:26:04.125Z,4.20
2022-10-05T13:28:41.964Z,4.30
2022-10-05T13:31:19.321Z,4.43
2022-10-05T13:34:13.772Z,4.70
2022-10-05T13:37:00.558Z,4.40
2022-10-05T13:39:52.740Z,4.70
2022-10-05T13:42:31.967Z,4.63
2022-10-05T13:45:11.918Z,4.75
2022-10-05T13:47:57.210Z,4.40
2022-10-05T13:50:33.469Z,4.80
2022-10-05T13:53:18.346Z,4.35
2022-10-05T13:55:55.385Z,4.25
2022-10-05T13:58:37.287Z,4.60
2022-10-05T14:01:16.718Z,4.45
2022-10-05T14:04:07.522Z,4.57
2022-10-05T14:06:39.798Z,4.60
2022-10-05T14:09:15.830Z,4.53
2022-10-05T14:11:55.140Z,4.38
2022-10-05T14:14:28.301Z,4.72
2022-10-05T14:16:59.397Z,4.72
2022-10-05T14:19:34.228Z,4.32
2022-10-05T14:22:12.254Z,4.07
2022-10-05T14:24:52.046Z,4.65
2022-10-05T14:27:28.087Z,4.60
2022-10-05T14:30:00.725Z,4.40
2022-10-05T14:32:34.379Z,4.43
2022-10-05T14:35:16.368Z,4.70
2022-10-05T14:37:51.966Z,3.90
2022-10-05T14:40:31.213Z,3.70
2022-10-05T14:43:19.042Z,4.18
2022-10-05T14:45:58.562Z,4.15
2022-10-05T14:48:29.240Z,3.97
2022-10-05T14:51:03.222Z,3.92
2022-10-05T14:53:43.257Z,4.50
2022-10-05T14:56:40.401Z,4.10
2022-10-05T14:59:30.175Z,3.90
2022-10-05T15:02:27.048Z,4.00
2022-10-05T15:05:03.480Z,3.67
2022-10-05T15:07:40.751Z,3.83
2022-10-05T15:10:30.336Z,3.88
2022-10-05T15:13:11.496Z,3.78
2022-10-05T15:15:50.839Z,3.80
2022-10-05T15:18:37.259Z,3.65
2022-10-05T15:21:37.233Z,4.18
2022-10-05T15:24:13.127Z,3.65
2022-10-05T15:26:51.473Z,3.80
2022-10-05T15:29:38.251Z,3.45
2022-10-05T15:32:24.456Z,4.50
2022-10-05T15:35:29.660Z,4.45
2022-10-05T15:38:07.440Z,3.67
2022-10-05T15:40:43.430Z,3.65
2022-10-05T15:43:18.431Z,4.18
2022-10-05T15:46:01.075Z,3.95
2022-10-05T15:48:48.379Z,3.63
2022-10-05T15:51:35.977Z,4.35
2022-10-05T15:54:30.720Z,4.93
2022-10-05T15:57:09.153Z,3.97
2022-10-05T15:59:53.162Z,5.63
2022-10-05T16:02:30.424Z,3.60
2022-10-05T16:05:16.548Z,3.53
2022-10-05T16:08:10.488Z,3.83
2022-10-05T16:10:45.723Z,3.38
2022-10-05T16:13:24.087Z,3.58
2022-10-05T16:16:02.029Z,3.88
2022-10-05T16:18:51.102Z,3.42
2022-10-05T16:21:32.250Z,3.67
2022-10-05T16:24:18.343Z,3.83
2022-10-05T16:27:00.549Z,4.07
2022-10-05T16:29:40.976Z,4.07
2022-10-05T16:32:20.031Z,4.13
2022-10-05T16:35:07.795Z,3.90
2022-10-05T16:37:48.676Z,3.80
2022-10-05T16:40:30.865Z,3.80
2022-10-05T16:43:17.061Z,3.80
2022-10-05T16:46:10.193Z,3.40
2022-10-05T16:48:53.332Z,3.53
2022-10-05T16:51:31.977Z,3.55
2022-10-05T16:54:18.952Z,3.97
2022-10-05T16:56:52.954Z,3.90
2022-10-05T17:00:08.093Z,4.03
2022-10-05T17:03:14.827Z,4.10
2022-10-05T17:06:12.046Z,3.67
2022-10-05T17:09:20.149Z,3.85
2022-10-05T17:12:11.020Z,3.50
2022-10-05T17:14:53.424Z,3.97
2022-10-05T17:17:38.055Z,4.03
2022-10-05T17:20:41.631Z,4.07
2022-10-05T17:23:31.783Z,3.80
2022-10-05T17:26:40.159Z,3.60
2022-10-05T17:29:18.233Z,3.63
2022-10-05T17:32:11.116Z,3.67
2022-10-05T17:35:01.353Z,3.97
2022-10-05T17:37:36.860Z,4.45
2022-10-05T17:40:34.134Z,4.10
2022-10-05T17:43:24.191Z,3.72
2022-10-05T17:46:01.511Z,3.90
2022-10-05T17:49:20.221Z,4.03
2022-10-05T17:52:23.803Z,4.60
2022-10-05T17:55:27.365Z,4.60
2022-10-05T17:57:59.848Z,4.65
2022-10-05T18:01:14.766Z,4.60
2022-10-05T18:03:45.287Z,4.90
2022-10-05T18:06:37.122Z,5.20
2022-10-05T18:09:30.800Z,4.88
2022-10-05T18:12:38.543Z,4.97
2022-10-05T18:15:46.513Z,4.68
2022-10-05T18:18:57.876Z,4.38
2022-10-05T18:21:38.792Z,3.67
2022-10-05T18:24:45.718Z,3.95
2022-10-05T18:27:50.681Z,3.63
2022-10-05T18:30:24.023Z,3.42
2022-10-05T18:33:34.039Z,3.17
2022-10-05T18:36:20.537Z,3.20
2022-10-05T18:39:00.992Z,3.38
2022-10-05T18:41:47.952Z,3.33
2022-10-05T18:44:33.205Z,3.40
2022-10-05T18:47:12.442Z,3.50
2022-10-05T18:50:01.074Z,3.00
2022-10-05T18:52:49.303Z,3.60
2022-10-05T18:55:26.946Z,3.20
2022-10-05T18:58:15.702Z,3.17
2022-10-05T19:01:30.218Z,2.90
2022-10-05T19:04:18.134Z,3.28
2022-10-05T19:07:05.683Z,3.15
2022-10-05T19:10:00.098Z,3.00
2022-10-05T19:12:44.221Z,3.40
2022-10-05T19:15:24.044Z,3.38
2022-10-05T19:18:21.736Z,2.90
2022-10-05T19:21:00.852Z,3.17
2022-10-05T19:23:58.750Z,3.58
2022-10-05T19:26:53.554Z,2.88
2022-10-05T19:29:41.479Z,4.18
2022-10-05T19:32:21.911Z,3.25
2022-10-05T19:35:09.857Z,3.50
2022-10-05T19:37:53.509Z,3.15
2022-10-05T19:40:29.245Z,3.50
2022-10-05T19:43:18.931Z,3.15
2022-10-05T19:46:05.469Z,3.05
2022-10-05T19:48:43.850Z,3.40
2022-10-05T19:51:27.550Z,3.30
2022-10-05T19:53:58.685Z,3.30
2022-10-05T19:56:30.879Z,3.35
2022-10-05T19:59:14.076Z,3.35
2022-10-05T20:01:50.912Z,3.78
2022-10-05T20:04:35.224Z,3.33
2022-10-05T20:07:03.839Z,3.10
2022-10-05T20:09:52.503Z,3.03
2022-10-05T20:12:22.855Z,3.30
2022-10-05T20:18:02.559Z,3.10
2022-10-05T20:20:41.622Z,3.05
2022-10-05T20:23:23.276Z,3.00
2022-10-05T20:26:10.082Z,3.25
2022-10-05T20:28:38.327Z,3.28
2022-10-05T20:31:08.542Z,3.85
2022-10-05T20:33:40.211Z,3.85
2022-10-05T20:36:08.791Z,3.58
2022-10-05T20:38:40.823Z,3.50
2022-10-05T20:41:09.919Z,3.05
2022-10-05T20:43:39.314Z,3.13
2022-10-05T20:46:07.937Z,3.47
2022-10-05T20:48:37.312Z,3.58
2022-10-05T20:51:05.726Z,3.58
2022-10-05T20:53:33.810Z,3.45
2022-10-05T20:56:02.431Z,3.63
2022-10-05T20:58:31.105Z,3.50
2022-10-05T21:01:18.274Z,3.20
2022-10-05T21:03:47.925Z,3.20
2022-10-05T21:06:17.829Z,3.67
2022-10-05T21:08:46.257Z,3.10
2022-10-05T21:11:14.916Z,3.58
2022-10-05T21:13:44.664Z,3.63
2022-10-05T21:16:13.943Z,3.30
2022-10-05T21:18:42.814Z,3.45
2022-10-05T21:21:12.493Z,3.70
2022-10-05T21:23:40.665Z,3.53
2022-10-05T21:26:08.898Z,3.45
2022-10-05T21:28:37.033Z,3.42
2022-10-05T21:31:05.260Z,3.67
2022-10-05T21:33:33.579Z,3.75
2022-10-05T21:36:01.962Z,3.63
2022-10-05T21:38:31.442Z,3.38
2022-10-05T21:40:59.728Z,3.20
2022-10-05T21:43:28.095Z,3.35
2022-10-05T21:45:57.102Z,3.55
2022-10-05T21:48:27.351Z,3.05
2022-10-05T21:50:55.810Z,3.17
2022-10-05T21:53:31.279Z,2.88
2022-10-05T21:56:04.862Z,3.63
2022-10-05T21:58:33.339Z,3.00
2022-10-05T22:01:04.118Z,3.03
2022-10-05T22:03:41.773Z,3.10
2022-10-05T22:06:19.873Z,3.00
2022-10-05T22:08:50.086Z,2.67
2022-10-05T22:11:22.837Z,2.75
2022-10-05T22:13:54.670Z,2.67
2022-10-05T22:16:30.306Z,2.85
2022-10-05T22:19:03.914Z,2.47
2022-10-05T22:21:37.715Z,2.65
2022-10-05T22:24:06.572Z,2.63
2022-10-05T22:26:36.177Z,2.90
2022-10-05T22:29:05.174Z,2.72
2022-10-05T22:31:33.383Z,2.42
2022-10-05T22:34:01.607Z,2.20
2022-10-05T22:36:30.045Z,2.40
2022-10-05T22:38:58.428Z,2.22
2022-10-05T22:41:26.649Z,2.63
2022-10-05T22:43:56.172Z,2.38
2022-10-05T22:46:24.398Z,2.80
2022-10-05T22:48:52.571Z,2.47
2022-10-05T22:51:20.899Z,2.70
2022-10-05T22:53:48.960Z,2.30
2022-10-05T22:56:17.233Z,2.53
2022-10-05T22:58:46.525Z,2.42
2022-10-05T23:01:18.899Z,2.22
2022-10-05T23:03:48.177Z,2.30
2022-10-05T23:06:19.771Z,2.30
2022-10-05T23:08:48.389Z,2.17
2022-10-05T23:11:19.557Z,2.28
2022-10-05T23:13:47.762Z,2.10
2022-10-05T23:16:20.156Z,2.22
2022-10-05T23:18:49.586Z,2.00
2022-10-05T23:21:19.248Z,1.70
2022-10-05T23:23:50.785Z,1.42
2022-10-05T23:26:21.289Z,1.48
2022-10-05T23:28:50.207Z,1.73
2022-10-05T23:31:23.293Z,1.45
2022-10-05T23:33:52.061Z,1.67
2022-10-05T23:36:23.255Z,1.50
2022-10-05T23:38:51.420Z,1.48
2022-10-05T23:41:20.490Z,1.40
2022-10-05T23:43:49.200Z,1.45
2022-10-05T23:46:19.445Z,1.38
2022-10-05T23:48:50.246Z,1.30
2022-10-05T23:51:18.793Z,1.10
2022-10-05T23:53:46.899Z,1.10
2022-10-05T23:56:15.073Z,1.20
2022-10-05T23:58:43.125Z,1.30
